sensor_id;sensor_type;location;lat;lon;timestamp;pressure;altitude;pressure_sealevel;temperature;humidity
60059;BME280;45932;50.658;3.022;2022-10-03T00:10:37;102437.78;;;13.42;69.31
60059;BME280;45932;50.658;3.022;2022-10-03T00:13:22;102425.25;;;13.36;69.71
60059;BME280;45932;50.658;3.022;2022-10-03T00:16:18;102451.31;;;13.59;69.97
60059;BME280;45932;50.658;3.022;2022-10-03T00:24:23;102479.47;;;13.51;69.78
60059;BME280;45932;50.658;3.022;2022-10-03T00:26:58;102388.94;;;12.81;69.53
60059;BME280;45932;50.658;3.022;2022-10-03T00:29:39;102360.69;;;12.80;69.97
60059;BME280;45932;50.658;3.022;2022-10-03T00:32:24;102400.78;;;13.02;69.90
60059;BME280;45932;50.658;3.022;2022-10-03T00:44:08;102488.97;;;13.39;69.84
60059;BME280;45932;50.658;3.022;2022-10-03T00:46:13;102502.13;;;13.36;69.61
60059;BME280;45932;50.658;3.022;2022-10-03T00:48:59;102492.38;;;13.34;69.78
60059;BME280;45932;50.658;3.022;2022-10-03T00:52:06;102495.84;;;13.31;69.58
60059;BME280;45932;50.658;3.022;2022-10-03T01:00:27;102495.66;;;13.22;69.55
60059;BME280;45932;50.658;3.022;2022-10-03T01:08:30;102495.44;;;13.09;69.73
60059;BME280;45932;50.658;3.022;2022-10-03T01:31:06;102519.09;;;13.00;69.95
60059;BME280;45932;50.658;3.022;2022-10-03T01:33:43;102391.56;;;12.37;70.43
60059;BME280;45932;50.658;3.022;2022-10-03T01:36:24;102379.19;;;12.36;70.19
60059;BME280;45932;50.658;3.022;2022-10-03T01:39:01;102467.84;;;12.98;70.36
60059;BME280;45932;50.658;3.022;2022-10-03T01:41:44;102407.06;;;12.60;70.61
60059;BME280;45932;50.658;3.022;2022-10-03T01:44:21;102434.66;;;12.73;70.53
60059;BME280;45932;50.658;3.022;2022-10-03T01:47:28;102386.38;;;12.42;70.36
60059;BME280;45932;50.658;3.022;2022-10-03T01:50:12;102477.38;;;12.90;70.66
60059;BME280;45932;50.658;3.022;2022-10-03T01:52:52;102405.06;;;12.49;71.13
60059;BME280;45932;50.658;3.022;2022-10-03T01:55:33;102333.09;;;12.23;71.51
60059;BME280;45932;50.658;3.022;2022-10-03T01:58:08;102404.28;;;12.54;70.96
60059;BME280;45932;50.658;3.022;2022-10-03T02:00:52;102398.19;;;12.58;71.46
60059;BME280;45932;50.658;3.022;2022-10-03T02:03:28;102429.56;;;12.82;71.38
60059;BME280;45932;50.658;3.022;2022-10-03T02:06:06;102452.72;;;12.92;71.42
60059;BME280;45932;50.658;3.022;2022-10-03T02:19:33;102412.13;;;12.49;71.04
60059;BME280;45932;50.658;3.022;2022-10-03T02:22:00;102319.97;;;11.90;71.24
60059;BME280;45932;50.658;3.022;2022-10-03T02:30:12;102456.94;;;12.82;71.30
60059;BME280;45932;50.658;3.022;2022-10-03T02:36:28;102413.94;;;12.52;71.72
60059;BME280;45932;50.658;3.022;2022-10-03T02:42:15;102451.41;;;12.72;71.83
60059;BME280;45932;50.658;3.022;2022-10-03T03:11:15;102357.97;;;12.33;73.59
60059;BME280;45932;50.658;3.022;2022-10-03T03:16:40;102265.03;;;11.76;73.85
60059;BME280;45932;50.658;3.022;2022-10-03T03:22:29;102349.91;;;12.27;73.77
60059;BME280;45932;50.658;3.022;2022-10-03T03:28:02;102423.78;;;12.59;72.93
60059;BME280;45932;50.658;3.022;2022-10-03T03:30:53;102364.75;;;12.20;72.54
60059;BME280;45932;50.658;3.022;2022-10-03T03:36:26;102401.75;;;12.19;72.29
60059;BME280;45932;50.658;3.022;2022-10-03T03:39:17;102315.41;;;11.82;72.28
60059;BME280;45932;50.658;3.022;2022-10-03T03:45:00;102473.25;;;12.60;71.76
60059;BME280;45932;50.658;3.022;2022-10-03T03:50:38;102467.13;;;12.64;71.75
60059;BME280;45932;50.658;3.022;2022-10-03T04:04:14;102467.13;;;12.64;71.69
60059;BME280;45932;50.658;3.022;2022-10-03T04:10:10;102402.88;;;12.30;72.12
60059;BME280;45932;50.658;3.022;2022-10-03T04:12:36;102462.81;;;12.69;71.80
60059;BME280;45932;50.658;3.022;2022-10-03T04:18:25;102391.97;;;12.14;71.33
60059;BME280;45932;50.658;3.022;2022-10-03T04:21:30;102479.53;;;12.65;71.78
60059;BME280;45932;50.658;3.022;2022-10-03T04:29:56;102468.06;;;12.66;71.74
60059;BME280;45932;50.658;3.022;2022-10-03T04:32:37;102481.31;;;12.66;71.67
60059;BME280;45932;50.658;3.022;2022-10-03T04:35:20;102470.72;;;12.66;71.83
60059;BME280;45932;50.658;3.022;2022-10-03T04:37:59;102372.19;;;11.97;71.04
60059;BME280;45932;50.658;3.022;2022-10-03T04:40:49;102360.59;;;11.92;71.62
60059;BME280;45932;50.658;3.022;2022-10-03T04:43:43;102464.50;;;12.65;71.80
60059;BME280;45932;50.658;3.022;2022-10-03T04:49:04;102358.88;;;11.94;71.55
60059;BME280;45932;50.658;3.022;2022-10-03T04:54:32;102350.72;;;11.84;71.39
60059;BME280;45932;50.658;3.022;2022-10-03T04:57:15;102463.56;;;12.62;71.59
60059;BME280;45932;50.658;3.022;2022-10-03T05:02:43;102479.44;;;12.62;71.19
60059;BME280;45932;50.658;3.022;2022-10-03T05:16:18;102409.34;;;12.03;70.88
60059;BME280;45932;50.658;3.022;2022-10-03T05:18:51;102496.94;;;12.54;70.72
60059;BME280;45932;50.658;3.022;2022-10-03T05:22:31;102319.16;;;11.52;71.25
60059;BME280;45932;50.658;3.022;2022-10-03T05:30:32;102249.50;;;11.12;71.28
60059;BME280;45932;50.658;3.022;2022-10-03T05:34:09;102394.25;;;11.97;71.15
60059;BME280;45932;50.658;3.022;2022-10-03T05:36:15;102489.84;;;12.53;71.14
60059;BME280;45932;50.658;3.022;2022-10-03T05:41:36;102295.94;;;11.39;71.13
60059;BME280;45932;50.658;3.022;2022-10-03T05:44:10;102379.84;;;11.86;71.10
60059;BME280;45932;50.658;3.022;2022-10-03T05:55:00;102493.13;;;12.42;70.74
60059;BME280;45932;50.658;3.022;2022-10-03T05:57:51;102445.75;;;12.13;70.91
60059;BME280;45932;50.658;3.022;2022-10-03T06:09:03;102509.69;;;12.33;70.26
60059;BME280;45932;50.658;3.022;2022-10-03T06:11:54;102514.03;;;12.30;70.16
60059;BME280;45932;50.658;3.022;2022-10-03T06:22:49;102529.69;;;12.21;70.12
60059;BME280;45932;50.658;3.022;2022-10-03T06:30:55;102548.97;;;12.16;69.46
60059;BME280;45932;50.658;3.022;2022-10-03T06:48:54;102541.03;;;12.16;70.43
60059;BME280;45932;50.658;3.022;2022-10-03T06:51:21;102543.69;;;12.16;70.53
60059;BME280;45932;50.658;3.022;2022-10-03T06:55:03;102555.97;;;12.14;70.38
60059;BME280;45932;50.658;3.022;2022-10-03T06:57:34;102446.75;;;11.48;70.46
60059;BME280;45932;50.658;3.022;2022-10-03T07:00:10;102565.72;;;12.15;70.37
60059;BME280;45932;50.658;3.022;2022-10-03T07:13:53;102558.16;;;12.31;71.24
60059;BME280;45932;50.658;3.022;2022-10-03T07:19:33;102547.75;;;12.39;71.38
60059;BME280;45932;50.658;3.022;2022-10-03T07:22:32;102469.00;;;11.92;71.37
60059;BME280;45932;50.658;3.022;2022-10-03T07:31:00;102540.41;;;12.65;71.80
60059;BME280;45932;50.658;3.022;2022-10-03T07:42:13;102531.16;;;12.86;71.95
60059;BME280;45932;50.658;3.022;2022-10-03T07:56:06;102456.69;;;12.70;72.56
60059;BME280;45932;50.658;3.022;2022-10-03T08:01:40;102394.56;;;12.53;72.46
60059;BME280;45932;50.658;3.022;2022-10-03T08:20:54;102503.91;;;13.83;73.00
60059;BME280;45932;50.658;3.022;2022-10-03T08:26:11;102501.53;;;14.00;73.23
60059;BME280;45932;50.658;3.022;2022-10-03T08:31:50;102478.69;;;14.10;73.29
60059;BME280;45932;50.658;3.022;2022-10-03T08:34:42;102498.47;;;14.31;73.20
60059;BME280;45932;50.658;3.022;2022-10-03T08:46:05;102503.59;;;14.83;
60059;BME280;45932;50.658;3.022;2022-10-03T08:52:01;102522.47;;;15.03;72.06
60059;BME280;45932;50.658;3.022;2022-10-03T08:54:55;102506.53;;;15.01;71.99
60059;BME280;45932;50.658;3.022;2022-10-03T09:17:15;102493.66;;;16.48;71.74
60059;BME280;45932;50.658;3.022;2022-10-03T09:34:19;102580.09;;;17.03;68.48
60059;BME280;45932;50.658;3.022;2022-10-03T10:02:14;102584.84;;;18.00;66.95
60059;BME280;45932;50.658;3.022;2022-10-03T10:07:39;102586.59;;;17.93;66.50
60059;BME280;45932;50.658;3.022;2022-10-03T10:26:51;102586.63;;;18.10;66.92
60059;BME280;45932;50.658;3.022;2022-10-03T10:47:23;102559.03;;;18.22;66.84
60059;BME280;45932;50.658;3.022;2022-10-03T10:59:04;102511.84;;;17.91;63.93
60059;BME280;45932;50.658;3.022;2022-10-03T11:16:30;102547.28;;;19.07;64.70
60059;BME280;45932;50.658;3.022;2022-10-03T11:37:02;102541.56;;;19.67;63.64
60059;BME280;45932;50.658;3.022;2022-10-03T11:39:48;102585.94;;;20.08;64.29
60059;BME280;45932;50.658;3.022;2022-10-03T11:42:21;102578.72;;;20.17;64.09
60059;BME280;45932;50.658;3.022;2022-10-03T11:47:48;102590.34;;;20.12;61.62
60059;BME280;45932;50.658;3.022;2022-10-03T11:55:42;102522.75;;;19.79;59.07
60059;BME280;45932;50.658;3.022;2022-10-03T12:01:17;102492.38;;;19.82;58.53
60059;BME280;45932;50.658;3.022;2022-10-03T12:04:19;102620.28;;;20.62;59.06
60059;BME280;45932;50.658;3.022;2022-10-03T12:07:05;102631.94;;;20.60;56.41
60059;BME280;45932;50.658;3.022;2022-10-03T12:10:00;102585.59;;;20.45;58.01
60059;BME280;45932;50.658;3.022;2022-10-03T12:13:13;102622.03;;;20.68;58.26
60059;BME280;45932;50.658;3.022;2022-10-03T12:15:45;102601.59;;;20.55;57.46
60059;BME280;45932;50.658;3.022;2022-10-03T12:21:18;102617.44;;;20.83;57.63
60059;BME280;45932;50.658;3.022;2022-10-03T12:23:58;102609.41;;;20.83;57.28
60059;BME280;45932;50.658;3.022;2022-10-03T12:26:54;102474.34;;;20.04;57.78
60059;BME280;45932;50.658;3.022;2022-10-03T12:29:25;102492.03;;;20.22;59.92
60059;BME280;45932;50.658;3.022;2022-10-03T12:35:02;102603.00;;;20.93;58.03
60059;BME280;45932;50.658;3.022;2022-10-03T12:37:54;102604.75;;;20.99;57.58
60059;BME280;45932;50.658;3.022;2022-10-03T12:40:36;102556.78;;;20.66;57.11
60059;BME280;45932;50.658;3.022;2022-10-03T12:43:27;102583.22;;;21.03;59.62
60059;BME280;45932;50.658;3.022;2022-10-03T12:46:24;102615.34;;;21.08;55.36
60059;BME280;45932;50.658;3.022;2022-10-03T12:51:57;102611.75;;;21.12;56.09
60059;BME280;45932;50.658;3.022;2022-10-03T12:59:38;102592.31;;;20.91;53.69
60059;BME280;45932;50.658;3.022;2022-10-03T13:02:25;102569.25;;;20.76;54.65
60059;BME280;45932;50.658;3.022;2022-10-03T13:05:38;102605.63;;;20.98;53.73
60059;BME280;45932;50.658;3.022;2022-10-03T13:17:09;102566.78;;;20.53;54.22
60059;BME280;45932;50.658;3.022;2022-10-03T13:20:03;102538.44;;;20.26;53.71
60059;BME280;45932;50.658;3.022;2022-10-03T13:22:40;102495.81;;;20.01;56.02
60059;BME280;45932;50.658;3.022;2022-10-03T13:25:24;102529.66;;;20.13;54.41
60059;BME280;45932;50.658;3.022;2022-10-03T13:28:06;102588.28;;;20.45;54.37
60059;BME280;45932;50.658;3.022;2022-10-03T13:30:52;102483.53;;;19.71;55.12
60059;BME280;45932;50.658;3.022;2022-10-03T13:33:29;102458.69;;;19.55;54.73
60059;BME280;45932;50.658;3.022;2022-10-03T13:39:05;102579.53;;;20.28;55.36
60059;BME280;45932;50.658;3.022;2022-10-03T13:41:56;102576.00;;;20.21;53.78
60059;BME280;45932;50.658;3.022;2022-10-03T13:44:45;102508.56;;;19.65;54.78
60059;BME280;45932;50.658;3.022;2022-10-03T13:47:47;102571.59;;;20.12;55.27
60059;BME280;45932;50.658;3.022;2022-10-03T13:50:17;102466.78;;;19.44;54.16
60059;BME280;45932;50.658;3.022;2022-10-03T14:06:59;102506.91;;;19.45;57.76
60059;BME280;45932;50.658;3.022;2022-10-03T14:12:08;102536.19;;;19.73;55.69
60059;BME280;45932;50.658;3.022;2022-10-03T14:14:56;102534.41;;;19.72;56.36
60059;BME280;45932;50.658;3.022;2022-10-03T14:25:56;102537.19;;;19.57;54.43
60059;BME280;45932;50.658;3.022;2022-10-03T14:28:35;102542.53;;;19.55;54.49
60059;BME280;45932;50.658;3.022;2022-10-03T14:31:10;102528.31;;;19.50;53.71
60059;BME280;45932;50.658;3.022;2022-10-03T14:33:45;102463.44;;;19.15;55.08
60059;BME280;45932;50.658;3.022;2022-10-03T14:42:05;102442.03;;;19.15;57.03
60059;BME280;45932;50.658;3.022;2022-10-03T14:44:41;102408.31;;;18.85;54.34
60059;BME280;45932;50.658;3.022;2022-10-03T14:47:10;102370.09;;;18.64;55.37
60059;BME280;45932;50.658;3.022;2022-10-03T14:49:38;102332.75;;;18.52;56.66
60059;BME280;45932;50.658;3.022;2022-10-03T14:55:13;102496.22;;;19.45;56.69
60059;BME280;45932;50.658;3.022;2022-10-03T14:57:45;102425.16;;;19.02;56.66
60059;BME280;45932;50.658;3.022;2022-10-03T15:03:12;102396.72;;;18.92;58.99
60059;BME280;45932;50.658;3.022;2022-10-03T15:08:22;102439.34;;;19.12;57.10
60059;BME280;45932;50.658;3.022;2022-10-03T15:10:53;102376.19;;;18.86;57.49
60059;BME280;45932;50.658;3.022;2022-10-03T15:13:22;102417.09;;;19.12;56.07
60059;BME280;45932;50.658;3.022;2022-10-03T15:15:50;102211.94;;;17.91;57.24
60059;BME280;45932;50.658;3.022;2022-10-03T15:18:20;102445.50;;;19.30;58.30
60059;BME280;45932;50.658;3.022;2022-10-03T15:20:50;102392.22;;;18.93;56.57
60059;BME280;45932;50.658;3.022;2022-10-03T15:23:26;102274.06;;;18.32;57.86
60059;BME280;45932;50.658;3.022;2022-10-03T15:25:55;102191.50;;;17.88;58.11
60059;BME280;45932;50.658;3.022;2022-10-03T15:31:43;102363.72;;;18.92;56.69
60059;BME280;45932;50.658;3.022;2022-10-03T15:34:27;102360.16;;;18.93;57.64
60059;BME280;45932;50.658;3.022;2022-10-03T15:36:58;102375.31;;;18.92;57.12
60059;BME280;45932;50.658;3.022;2022-10-03T15:39:33;102358.41;;;18.79;56.21
60059;BME280;45932;50.658;3.022;2022-10-03T15:44:39;102345.13;;;18.71;57.95
60059;BME280;45932;50.658;3.022;2022-10-03T15:47:21;102336.19;;;18.74;59.81
60059;BME280;45932;50.658;3.022;2022-10-03T15:50:24;102256.34;;;18.21;58.60
60059;BME280;45932;50.658;3.022;2022-10-03T15:52:53;102383.31;;;18.94;56.47
60059;BME280;45932;50.658;3.022;2022-10-03T15:58:06;102380.59;;;18.97;58.48
60059;BME280;45932;50.658;3.022;2022-10-03T16:00:35;102301.53;;;18.54;59.50
60059;BME280;45932;50.658;3.022;2022-10-03T16:03:13;102356.63;;;18.81;58.53
60059;BME280;45932;50.658;3.022;2022-10-03T16:08:35;102417.88;;;19.23;58.42
60059;BME280;45932;50.658;3.022;2022-10-03T16:11:11;102318.41;;;18.64;58.58
60059;BME280;45932;50.658;3.022;2022-10-03T16:13:44;102388.63;;;18.91;58.18
60059;BME280;45932;50.658;3.022;2022-10-03T16:16:36;102319.34;;;18.63;59.34
60059;BME280;45932;50.658;3.022;2022-10-03T16:24:07;102336.22;;;18.65;59.16
60059;BME280;45932;50.658;3.022;2022-10-03T16:27:00;102327.41;;;18.52;59.99
60059;BME280;45932;50.658;3.022;2022-10-03T16:29:33;102378.91;;;18.77;60.12
60059;BME280;45932;50.658;3.022;2022-10-03T16:32:13;102310.53;;;18.39;59.52
60059;BME280;45932;50.658;3.022;2022-10-03T16:34:42;102394.06;;;18.81;58.95
60059;BME280;45932;50.658;3.022;2022-10-03T16:37:20;102331.84;;;18.51;60.32
60059;BME280;45932;50.658;3.022;2022-10-03T16:40:03;102320.34;;;18.35;59.74
60059;BME280;45932;50.658;3.022;2022-10-03T16:42:43;102307.06;;;18.24;59.66
60059;BME280;45932;50.658;3.022;2022-10-03T16:45:33;102391.44;;;18.75;60.19
60059;BME280;45932;50.658;3.022;2022-10-03T16:48:10;102321.25;;;18.33;60.08
60059;BME280;45932;50.658;3.022;2022-10-03T16:50:55;102319.50;;;18.29;60.30
60059;BME280;45932;50.658;3.022;2022-10-03T16:53:21;102401.19;;;18.81;60.82
60059;BME280;45932;50.658;3.022;2022-10-03T16:55:49;102334.56;;;18.44;60.31
60059;BME280;45932;50.658;3.022;2022-10-03T16:58:22;102392.31;;;18.74;61.18
60059;BME280;45932;50.658;3.022;2022-10-03T17:01:03;102393.22;;;18.70;60.72
60059;BME280;45932;50.658;3.022;2022-10-03T17:03:37;102282.25;;;17.98;60.96
60059;BME280;45932;50.658;3.022;2022-10-03T17:06:06;102324.00;;;18.16;60.77
60059;BME280;45932;50.658;3.022;2022-10-03T17:08:42;102332.88;;;18.24;59.88
60059;BME280;45932;50.658;3.022;2022-10-03T17:11:16;102342.69;;;18.20;60.03
60059;BME280;45932;50.658;3.022;2022-10-03T17:13:56;102319.56;;;18.10;61.01
60059;BME280;45932;50.658;3.022;2022-10-03T17:16:30;102306.25;;;18.05;61.26
60059;BME280;45932;50.658;3.022;2022-10-03T17:19:29;102377.28;;;18.50;62.16
60059;BME280;45932;50.658;3.022;2022-10-03T17:22:03;102260.97;;;17.76;61.77
60059;BME280;45932;50.658;3.022;2022-10-03T17:28:13;102278.72;;;17.75;62.14
60059;BME280;45932;50.658;3.022;2022-10-03T17:30:51;102287.63;;;17.79;62.23
60059;BME280;45932;50.658;3.022;2022-10-03T17:33:40;102246.75;;;17.65;63.24
60059;BME280;45932;50.658;3.022;2022-10-03T17:39:02;102251.22;;;17.63;63.28
60059;BME280;45932;50.658;3.022;2022-10-03T17:44:53;102372.94;;;18.26;62.08
60059;BME280;45932;50.658;3.022;2022-10-03T17:47:31;102245.91;;;17.53;63.48
60059;BME280;45932;50.658;3.022;2022-10-03T17:50:13;102291.22;;;17.75;63.05
60059;BME280;45932;50.658;3.022;2022-10-03T17:52:45;102290.31;;;17.76;63.25
60059;BME280;45932;50.658;3.022;2022-10-03T17:55:19;102186.44;;;17.08;63.52
60059;BME280;45932;50.658;3.022;2022-10-03T17:57:52;102356.94;;;18.15;63.26
60059;BME280;45932;50.658;3.022;2022-10-03T18:00:22;102279.66;;;17.64;62.98
60059;BME280;45932;50.658;3.022;2022-10-03T18:05:37;102268.13;;;17.52;63.76
60059;BME280;45932;50.658;3.022;2022-10-03T18:08:09;102354.31;;;18.02;63.84
60059;BME280;45932;50.658;3.022;2022-10-03T18:10:41;102221.97;;;17.28;63.96
60059;BME280;45932;50.658;3.022;2022-10-03T18:13:28;102323.22;;;17.86;64.27
60059;BME280;45932;50.658;3.022;2022-10-03T18:19:02;102341.00;;;17.88;64.13
60059;BME280;45932;50.658;3.022;2022-10-03T18:21:38;102320.56;;;17.70;64.00
60059;BME280;45932;50.658;3.022;2022-10-03T18:24:19;102249.50;;;17.18;63.99
60059;BME280;45932;50.658;3.022;2022-10-03T18:27:13;102291.25;;;17.38;64.15
60059;BME280;45932;50.658;3.022;2022-10-03T18:29:57;102234.41;;;17.06;64.26
60059;BME280;45932;50.658;3.022;2022-10-03T18:32:28;102193.53;;;16.78;64.52
60059;BME280;45932;50.658;3.022;2022-10-03T18:39:55;102031.97;;;15.84;64.17
60059;BME280;45932;50.658;3.022;2022-10-03T18:42:24;102227.31;;;16.98;64.42
60059;BME280;45932;50.658;3.022;2022-10-03T18:45:02;102261.97;;;17.08;64.02
60059;BME280;45932;50.658;3.022;2022-10-03T18:47:41;102133.16;;;16.33;64.25
60059;BME280;45932;50.658;3.022;2022-10-03T18:50:30;102330.38;;;17.47;64.50
60059;BME280;45932;50.658;3.022;2022-10-03T18:53:22;102318.84;;;17.44;64.84
60059;BME280;45932;50.658;3.022;2022-10-03T18:56:16;102090.56;;;16.09;64.87
60059;BME280;45932;50.658;3.022;2022-10-03T19:01:27;102198.88;;;16.58;65.00
60059;BME280;45932;50.658;3.022;2022-10-03T19:04:07;102143.78;;;16.30;64.58
60059;BME280;45932;50.658;3.022;2022-10-03T19:06:40;102188.22;;;16.53;64.83
60059;BME280;45932;50.658;3.022;2022-10-03T19:09:16;102215.75;;;16.51;64.48
60059;BME280;45932;50.658;3.022;2022-10-03T19:20:24;102327.75;;;17.12;64.95
60059;BME280;45932;50.658;3.022;2022-10-03T19:23:08;102298.41;;;16.92;64.89
60059;BME280;45932;50.658;3.022;2022-10-03T19:25:38;102163.28;;;16.02;64.53
60059;BME280;45932;50.658;3.022;2022-10-03T19:28:21;102261.94;;;16.65;64.68
60059;BME280;45932;50.658;3.022;2022-10-03T19:31:05;102199.72;;;16.23;64.98
60059;BME280;45932;50.658;3.022;2022-10-03T19:33:41;102237.91;;;16.43;65.23
60059;BME280;45932;50.658;3.022;2022-10-03T19:36:29;102309.03;;;16.86;64.94
60059;BME280;45932;50.658;3.022;2022-10-03T19:38:57;102192.63;;;16.19;65.10
60059;BME280;45932;50.658;3.022;2022-10-03T19:41:34;102227.25;;;16.36;65.27
60059;BME280;45932;50.658;3.022;2022-10-03T19:44:07;102314.34;;;16.86;65.26
60059;BME280;45932;50.658;3.022;2022-10-03T19:46:45;102312.59;;;16.84;65.05
60059;BME280;45932;50.658;3.022;2022-10-03T19:49:22;102266.31;;;16.43;65.17
60059;BME280;45932;50.658;3.022;2022-10-03T19:51:50;102219.22;;;16.15;64.95
60059;BME280;45932;50.658;3.022;2022-10-03T19:54:43;102310.78;;;16.62;65.24
60059;BME280;45932;50.658;3.022;2022-10-03T19:57:16;102271.63;;;16.33;65.10
60059;BME280;45932;50.658;3.022;2022-10-03T19:59:45;102257.41;;;16.22;65.03
60059;BME280;45932;50.658;3.022;2022-10-03T20:02:12;102266.22;;;16.12;65.11
60059;BME280;45932;50.658;3.022;2022-10-03T20:04:37;102224.47;;;15.98;65.30
60059;BME280;45932;50.658;3.022;2022-10-03T20:07:10;102222.69;;;15.93;65.02
60059;BME280;45932;50.658;3.022;2022-10-03T20:09:53;102237.78;;;15.98;65.16
60059;BME280;45932;50.658;3.022;2022-10-03T20:12:19;102215.59;;;15.86;65.45
60059;BME280;45932;50.658;3.022;2022-10-03T20:14:48;102289.31;;;16.16;65.38
60059;BME280;45932;50.658;3.022;2022-10-03T20:17:21;102326.69;;;16.50;65.40
60059;BME280;45932;50.658;3.022;2022-10-03T20:20:04;102278.66;;;16.14;65.13
60059;BME280;45932;50.658;3.022;2022-10-03T20:22:33;102203.06;;;15.77;65.50
60059;BME280;45932;50.658;3.022;2022-10-03T20:25:02;102131.94;;;15.29;65.31
60059;BME280;45932;50.658;3.022;2022-10-03T20:27:40;102336.41;;;16.34;65.24
60059;BME280;45932;50.658;3.022;2022-10-03T20:30:29;102271.50;;;16.03;65.23
60059;BME280;45932;50.658;3.022;2022-10-03T20:32:58;102345.34;;;16.41;65.11
60059;BME280;45932;50.658;3.022;2022-10-03T20:35:27;102282.16;;;16.03;65.22
60059;BME280;45932;50.658;3.022;2022-10-03T20:38:04;102277.72;;;15.98;64.79
60059;BME280;45932;50.658;3.022;2022-10-03T20:43:30;102333.75;;;16.26;65.02
60059;BME280;45932;50.658;3.022;2022-10-03T20:46:05;102339.94;;;16.24;65.09
60059;BME280;45932;50.658;3.022;2022-10-03T20:48:37;102291.88;;;15.90;64.58
60059;BME280;45932;50.658;3.022;2022-10-03T20:51:07;102300.78;;;15.99;64.65
60059;BME280;45932;50.658;3.022;2022-10-03T20:53:44;102329.25;;;16.13;65.10
60059;BME280;45932;50.658;3.022;2022-10-03T20:56:11;102239.38;;;15.62;64.96
60059;BME280;45932;50.658;3.022;2022-10-03T20:58:46;102240.28;;;15.61;65.07
60059;BME280;45932;50.658;3.022;2022-10-03T21:01:15;102253.59;;;15.67;64.97
60059;BME280;45932;50.658;3.022;2022-10-03T21:04:00;102309.69;;;16.05;65.02
60059;BME280;45932;50.658;3.022;2022-10-03T21:06:33;102318.53;;;16.02;64.95
60059;BME280;45932;50.658;3.022;2022-10-03T21:09:15;102185.97;;;15.22;64.75
60059;BME280;45932;50.658;3.022;2022-10-03T21:11:45;102307.88;;;15.96;65.20
60059;BME280;45932;50.658;3.022;2022-10-03T21:14:19;102199.31;;;15.28;64.77
60059;BME280;45932;50.658;3.022;2022-10-03T21:16:49;102227.72;;;15.39;64.86
60059;BME280;45932;50.658;3.022;2022-10-03T21:21:54;102248.16;;;15.46;64.71
60059;BME280;45932;50.658;3.022;2022-10-03T21:24:26;102294.41;;;15.76;64.97
60059;BME280;45932;50.658;3.022;2022-10-03T21:26:56;102294.41;;;15.76;64.77
60059;BME280;45932;50.658;3.022;2022-10-03T21:35:17;102202.81;;;15.24;65.41
60059;BME280;45932;50.658;3.022;2022-10-03T21:37:48;102281.06;;;15.69;64.93
60059;BME280;45932;50.658;3.022;2022-10-03T21:40:24;102195.69;;;15.17;65.14
60059;BME280;45932;50.658;3.022;2022-10-03T21:45:51;102201.88;;;15.16;65.27
60059;BME280;45932;50.658;3.022;2022-10-03T21:51:41;102141.44;;;14.84;65.06
60059;BME280;45932;50.658;3.022;2022-10-03T22:07:53;102104.06;;;14.61;64.88
60059;BME280;45932;50.658;3.022;2022-10-03T22:10:35;102170.81;;;15.04;65.36
60059;BME280;45932;50.658;3.022;2022-10-03T22:13:06;102232.13;;;15.36;65.31
60059;BME280;45932;50.658;3.022;2022-10-03T22:15:42;102229.47;;;15.33;65.04
60059;BME280;45932;50.658;3.022;2022-10-03T22:18:51;102166.28;;;14.91;64.94
60059;BME280;45932;50.658;3.022;2022-10-03T22:21:34;102143.09;;;14.68;65.46
60059;BME280;45932;50.658;3.022;2022-10-03T22:24:07;102233.81;;;15.22;64.97
60059;BME280;45932;50.658;3.022;2022-10-03T22:26:53;102233.81;;;15.20;65.32
60059;BME280;45932;50.658;3.022;2022-10-03T22:29:31;102235.53;;;15.15;64.97
60059;BME280;45932;50.658;3.022;2022-10-03T22:32:14;102143.00;;;14.62;65.13
60059;BME280;45932;50.658;3.022;2022-10-03T22:37:27;102156.38;;;14.68;65.13
60059;BME280;45932;50.658;3.022;2022-10-03T22:39:53;102144.78;;;14.61;65.04
60059;BME280;45932;50.658;3.022;2022-10-03T22:42:22;102100.28;;;14.32;65.02
60059;BME280;45932;50.658;3.022;2022-10-03T22:44:50;102216.88;;;15.06;65.56
60059;BME280;45932;50.658;3.022;2022-10-03T22:47:29;102221.31;;;15.04;65.16
60059;BME280;45932;50.658;3.022;2022-10-03T22:50:02;102172.34;;;14.74;65.35
60059;BME280;45932;50.658;3.022;2022-10-03T22:52:38;102239.88;;;14.99;65.01
60059;BME280;45932;50.658;3.022;2022-10-03T22:55:09;102248.69;;;14.95;64.85
60059;BME280;45932;50.658;3.022;2022-10-03T22:57:39;102133.06;;;14.39;65.42
60059;BME280;45932;50.658;3.022;2022-10-03T23:00:11;102125.09;;;14.37;65.47
60059;BME280;45932;50.658;3.022;2022-10-03T23:02:41;102214.97;;;14.89;65.28
60059;BME280;45932;50.658;3.022;2022-10-03T23:05:15;102101.94;;;14.18;65.16
60059;BME280;45932;50.658;3.022;2022-10-03T23:07:51;102243.31;;;14.89;64.95
60059;BME280;45932;50.658;3.022;2022-10-03T23:21:17;102189.88;;;14.55;65.25
60059;BME280;45932;50.658;3.022;2022-10-03T23:29:19;102204.25;;;14.77;65.75
60059;BME280;45932;50.658;3.022;2022-10-03T23:42:41;102169.84;;;14.94;66.57
60059;BME280;45932;50.658;3.022;2022-10-03T23:47:45;102161.00;;;14.95;66.81
60059;BME280;45932;50.658;3.022;2022-10-03T23:50:21;102151.22;;;14.91;66.81
60059;BME280;45932;50.658;3.022;2022-10-03T23:52:54;101981.47;;;13.94;66.47
60059;BME280;45932;50.658;3.022;2022-10-03T23:55:29;102155.66;;;14.94;66.75
60059;BME280;45932;50.658;3.022;2022-10-03T23:57:55;102044.47;;;14.23;66.92
